ADDS METAR Data INFO
IDs: Format: Raw Decoded Include TAF

Data at: 0150 UTC 21 Apr 2018

KAPY 210135Z AUTO 12013G21KT 10SM CLR 25/14 A2992 RMK AO2 T02550142
KAPY 210115Z AUTO 12012G17KT 10SM CLR 26/13 A2993 RMK AO2 T02600141
KAPY 210055Z AUTO 12014G21KT 10SM SCT004 26/13 A2991 RMK AO2 T02640140
KAPY 210035Z AUTO 12007G20KT 10SM SCT004 SCT050 27/13 A2992 RMK AO2 T02700139
KAPY 210015Z AUTO 12011G21KT 10SM OVC004 27/13 A2992 RMK AO2 T02720141
KAPY 202355Z AUTO 13014G24KT 10SM OVC004 27/13 A2992 RMK AO2 T02800140
KAPY 202335Z AUTO 13016G20KT 10SM BKN004 OVC049 28/14 A2992 RMK AO2 T02860142
KAPY 202315Z AUTO 14012G19KT 10SM OVC004 28/14 A2993 RMK AO2 T02840146
KAPY 202255Z AUTO 12013G19KT 10SM BKN004 OVC048 28/15 A2994 RMK AO2 T02860148
KAPY 202235Z AUTO 11016G20KT 10SM BKN004 OVC048 28/14 A2994 RMK AO2 T02900146
KAPY 202215Z AUTO 12015G21KT 10SM SCT004 BKN048 BKN050 29/14 A2995 RMK AO2 T02960144
KAPY 202155Z AUTO 12017G24KT 10SM SCT048 SCT050 30/14 A2996 RMK AO2 T02980145
KAPY 202135Z AUTO 14012G21KT 10SM SCT046 SCT060 28/15 A2997 RMK AO2 T02900148
KAPY 202115Z AUTO 12012G18KT 10SM BKN046 OVC060 28/15 A2998 RMK AO2 T02840151
KAPY 202055Z AUTO 13010G19KT 10SM SCT042 BKN048 OVC060 27/15 A2999 RMK AO2 T02800155
KAPY 202035Z AUTO 14009G14KT 10SM BKN042 OVC050 27/15 A3000 RMK AO2 T02760155
KAPY 202015Z AUTO 14011G17KT 10SM BKN042 BKN050 OVC055 27/15 A3001 RMK AO2 T02730157
KAPY 201955Z AUTO 13010G17KT 10SM BKN037 BKN046 OVC050 26/15 A3002 RMK AO2 T02680157
KAPY 201935Z AUTO 15009G19KT 10SM SCT037 OVC046 27/15 A3003 RMK AO2 T02720157
KAPY 201915Z AUTO 14011G19KT 10SM SCT033 BKN041 OVC047 27/16 A3003 RMK AO2 T02700160
KAPY 201855Z AUTO 14010G21KT 10SM SCT033 OVC041 25/16 A3005 RMK AO2 T02560161
KAPY 201835Z AUTO 13011G18KT 10SM BKN033 BKN041 26/16 A3006 RMK AO2 T02580160
KAPY 201815Z AUTO 14010G20KT 10SM OVC033 26/16 A3007 RMK AO2 T02620160
KAPY 201755Z AUTO 13010G16KT 100V160 10SM OVC033 25/15 A3008 RMK AO2 T02570157
KAPY 201735Z AUTO 13011G20KT 10SM BKN035 OVC049 25/15 A3008 RMK AO2 T02570156
KAPY 201715Z AUTO 13012G18KT 10SM BKN035 OVC049 26/15 A3007 RMK AO2 T02590156
KAPY 201655Z AUTO 12009KT 10SM OVC035 24/16 A3009 RMK AO2 T02450158
KAPY 201635Z AUTO 13008KT 10SM OVC035 22/15 A3010 RMK AO2 T02300158
KAPY 201615Z AUTO 12011G14KT 10SM SCT022 OVC035 22/16 A3011 RMK AO2 T02290158
KAPY 201555Z AUTO 10010KT 10SM SCT020 OVC037 22/15 A3012 RMK AO2 T02250158
KAPY 201535Z AUTO 10009KT 10SM SCT020 OVC037 21/15 A3012 RMK AO2 T02180157
KAPY 201515Z AUTO 10008KT 10SM OVC041 21/15 A3013 RMK AO2 T02150155
KAPY 201455Z AUTO 10010G14KT 10SM OVC045 21/15 A3012 RMK AO2 T02110155
KAPY 201435Z AUTO 10008KT 10SM SCT045 21/15 A3012 RMK AO2 T02100155
KAPY 201415Z AUTO 11008G14KT 10SM SCT055 21/15 A3011 RMK AO2 T02080151
KAPY 201355Z AUTO 10011KT 10SM OVC055 20/15 A3012 RMK AO2 T02060151
KAPY 201335Z AUTO 12009G15KT 10SM BKN055 20/15 A3011 RMK AO2 T02050151
KAPY 201315Z AUTO 12010G16KT 10SM CLR 20/15 A3011 RMK AO2 T02030151
KAPY 201255Z AUTO 11011KT 10SM CLR 20/15 A3010 RMK AO2 T02000150
KAPY 201235Z AUTO 11009G15KT 10SM CLR 20/14 A3009 RMK AO2 LTG DSNT NW T01970145
KAPY 201215Z AUTO 11009G14KT 10SM CLR 20/14 A3010 RMK AO2 T01970142
KAPY 201155Z AUTO 10008KT 10SM SCT003 BKN055 19/13 A3010 RMK AO2 T01960138
KAPY 201135Z AUTO 10010KT 10SM SCT003 SCT035 OVC055 19/13 A3010 RMK AO2 T01960134
KAPY 201115Z AUTO 09006KT 10SM SCT040 OVC055 19/12 A3012 RMK AO2 T01960130
KAPY 201055Z AUTO 08003KT 10SM SCT034 BKN040 OVC055 19/12 A3014 RMK AO2 T01960128
KAPY 201035Z AUTO 08004KT 10SM BKN033 OVC060 19/12 A3014 RMK AO2 T01950127
KAPY 201015Z AUTO 09003KT 10SM SCT022 BKN029 OVC060 19/12 A3013 RMK AO2 T01950124
KAPY 200955Z AUTO 08003KT 10SM BKN020 OVC060 19/12 A3012 RMK AO2 T01950121
KAPY 200935Z AUTO 10003KT 10SM BKN020 BKN025 OVC080 19/12 A3012 RMK AO2 T01930120
KAPY 200915Z AUTO 12004KT 10SM OVC080 18/11 A3012 RMK AO2 T01910116
KAPY 200855Z AUTO 09004KT 10SM BKN003 OVC080 18/11 A3011 RMK AO2 T01900115
KAPY 200835Z AUTO 12003KT 10SM BKN003 OVC075 18/11 A3011 RMK AO2 T01900113
KAPY 200815Z AUTO 10004KT 10SM BKN003 BKN022 OVC075 19/11 A3011 RMK AO2 T01920111
KAPY 200755Z AUTO 09006KT 10SM SCT003 BKN022 OVC075 19/11 A3011 RMK AO2 T01950110
KAPY 200735Z AUTO 10004KT 10SM BKN024 OVC075 19/11 A3013 RMK AO2 T01950108
KAPY 200715Z AUTO 10003KT 10SM BKN024 OVC075 19/10 A3015 RMK AO2 T01950106
KAPY 200655Z AUTO 00000KT 10SM SCT024 OVC075 19/10 A3016 RMK AO2 T01950105
KAPY 200635Z AUTO 00000KT 10SM SCT003 OVC075 19/10 A3015 RMK AO2 T01950103
KAPY 200615Z AUTO 09004KT 10SM OVC003 19/10 A3015 RMK AO2 T01940101
KAPY 200555Z AUTO 08005KT 10SM OVC003 19/10 A3016 RMK AO2 T01960100
KAPY 200535Z AUTO 10006KT 10SM OVC003 20/10 A3017 RMK AO2 T01980100
KAPY 200515Z AUTO 10006KT 10SM OVC003 20/10 A3017 RMK AO2 T02010100
KAPY 200455Z AUTO 10006KT 10SM OVC003 20/10 A3017 RMK AO2 T02050100
KAPY 200435Z AUTO 09005KT 10SM OVC003 20/10 A3018 RMK AO2 T02070102
KAPY 200415Z AUTO 10011G14KT 10SM OVC003 21/10 A3017 RMK AO2 T02100103
KAPY 200355Z AUTO 10010G16KT 10SM BKN003 OVC090 21/10 A3017 RMK AO2 T02140105
KAPY 200335Z AUTO 10008G14KT 10SM SCT003 OVC090 22/10 A3017 RMK AO2 T02200106
KAPY 200315Z AUTO 10015G19KT 10SM SCT080 OVC090 22/11 A3016 RMK AO2 T02250111
KAPY 200255Z AUTO 09011G17KT 10SM SCT003 BKN085 OVC090 22/11 A3016 RMK AO2 T02300115
KAPY 200235Z AUTO 10010G16KT 10SM BKN003 OVC085 23/11 A3016 RMK AO2 T02330118
KAPY 200215Z AUTO 09009KT 10SM BKN003 OVC085 23/12 A3015 RMK AO2 T02380122
KAPY 200155Z AUTO 09011G17KT 10SM BKN003 OVC085 23/12 A3015 RMK AO2 T02410123
KAPY 200135Z AUTO 09011KT 10SM BKN003 OVC085 24/12 A3014 RMK AO2 T02450123
KAPY 200115Z AUTO 09010KT 10SM BKN003 OVC055 25/12 A3013 RMK AO2 T02490125
KAPY 200055Z AUTO 09011G14KT 10SM SCT003 SCT055 OVC080 25/12 A3013 RMK AO2 T02530128
KAPY 200035Z AUTO 09010G14KT 10SM OVC080 25/12 A3013 RMK AO2 T02550126
KAPY 200015Z AUTO 09010G16KT 10SM OVC070 25/12 A3012 RMK AO2 T02570125
KAPY 192355Z AUTO 10011G17KT 10SM SCT050 OVC070 26/12 A3012 RMK AO2 T02600126
KAPY 192335Z AUTO 09010G15KT 10SM BKN050 OVC070 26/12 A3012 RMK AO2 T02620127
KAPY 192315Z AUTO 09012KT 10SM OVC050 26/12 A3012 RMK AO2 T02620130
KAPY 192255Z AUTO 09011G17KT 10SM OVC050 26/13 A3012 RMK AO2 T02620131
KAPY 192235Z AUTO 08009G14KT 10SM OVC050 26/13 A3013 RMK AO2 T02650135
KAPY 192215Z AUTO 07009KT 10SM OVC050 26/13 A3012 RMK AO2 T02650135
KAPY 192155Z AUTO 08010KT 10SM OVC050 26/13 A3013 RMK AO2 T02680135
KAPY 192135Z AUTO 10010G15KT 10SM OVC050 26/13 A3013 RMK AO2 T02670135
KAPY 192115Z AUTO 08012G18KT 10SM OVC050 27/13 A3014 RMK AO2 T02700140
KAPY 192055Z AUTO 09008KT 10SM OVC060 27/13 A3014 RMK AO2 T02760133
KAPY 192035Z AUTO 12011G15KT 10SM OVC060 27/12 A3015 RMK AO2 T02800128
KAPY 192015Z AUTO 10011G15KT 10SM SCT003 OVC060 28/12 A3016 RMK AO2 T02900122
KAPY 191955Z AUTO 09012G16KT 10SM SCT003 OVC050 28/12 A3016 RMK AO2 T02870121
KAPY 191935Z AUTO 11008G16KT 10SM SCT003 OVC050 28/12 A3017 RMK AO2 T02900125
KAPY 191915Z AUTO 10010G16KT 10SM BKN003 OVC050 30/12 A3017 RMK AO2 T02980125
KAPY 191855Z AUTO 08010G19KT 10SM BKN003 OVC050 28/12 A3018 RMK AO2 T02900127
KAPY 191835Z AUTO 11011G17KT 10SM OVC003 29/13 A3019 RMK AO2 T02940134
KAPY 191815Z AUTO 08012G19KT 10SM BKN003 OVC049 28/13 A3020 RMK AO2 T02810140
KAPY 191755Z AUTO 11012G19KT 10SM SCT003 OVC049 27/14 A3020 RMK AO2 T02730143
KAPY 191735Z AUTO 09008G16KT 10SM SCT003 OVC045 26/14 A3021 RMK AO2 T02620142
KAPY 191715Z AUTO 10012G17KT 10SM BKN003 OVC041 26/13 A3022 RMK AO2 T02610141
KAPY 191655Z AUTO 06009KT 10SM OVC003 25/13 A3023 RMK AO2 T02470135
KAPY 191635Z AUTO 06009G14KT 10SM BKN003 BKN027 OVC047 23/12 A3023 RMK AO2 T02410126
KAPY 191615Z AUTO 06009G15KT 10SM SCT003 BKN039 OVC045 22/13 A3023 RMK AO2 T02230137
KAPY 191555Z AUTO 07009KT 7SM RA SCT021 BKN028 OVC037 21/15 A3023 RMK AO2 T02110152
KAPY 191535Z AUTO 05012G20KT 10SM BKN019 OVC029 22/15 A3022 RMK AO2 T02240147
KAPY 191515Z AUTO 06007KT 10SM SCT003 BKN019 OVC043 23/17 A3020 RMK AO2 T02370180
KAPY 191455Z AUTO 07007G15KT 10SM SCT003 BKN017 OVC041 23/17 A3020 RMK AO2 T02370180
KAPY 191435Z AUTO 07009KT 10SM SCT003 BKN026 OVC041 23/18 A3019 RMK AO2 T02320185
KAPY 191415Z AUTO 05007KT 10SM BKN013 BKN027 OVC041 22/18 A3020 RMK AO2 T02250185
KAPY 191355Z AUTO 04006KT 10SM BKN011 OVC039 22/18 A3019 RMK AO2 T02200185